Terminal Aerodrome Forecast
Issued by NWS

Home | Current Version | Previous Version | Text Only | Print | Product List | Glossary On
Versions: 1 2 3 4 5 6 7 8 9 10 11 12 13 14 15 16 17 18 19 20 21 22 23 24 25 26 27 28 29 30 31 32
000
FTAK31 PANC 211357 AAA
TAFATK
TAF AMD
PATK 211357Z 2114/2212 VRB02KT P6SM SCT035 BKN050
      TEMPO 2114/2116 BKN015 OVC050
     FM212100 36004KT P6SM -SHRA SCT035 BKN050 BKN080
     FM220300 35008G15KT P6SM FEW120
     FM220700 36040KT P6SM SKC=

USA.gov is the U.S. government's official web portal to all federal, state and local government web resources and services.